Airfield :
LOGIN :

Register | Disclaimer

   EN    FR    IT 

 










Legend :    VFR   Marginal VFR   IFR   Intensive IFR   Very Intensive IFR
Visi :
Ceiling :
>= 8 km
>= 3000ft
5 to 8 km
1000 to 3000 ft
1500m to 5 km
500 to 1000 ft
800 to 1500m
200 to 500 ft
< 800m
< 200 ft
Symbols :   Thunderstorms  Fog  Heavy snow  Heavy precipitations  Wind > 20 kt
SIGMETs :     Misc.  Thunderstorms  Icing  Turbulence  Mountain Waves  Volcanic Ashes






- Airport Elevation : 170 ft
- IATA code : KRP


EKKA - Karup

CURRENT METAR :
  • 181850Z 17007KT 140V200 9999 SCT012 BKN060 10/10 Q0997

EXPIRED METARs :
  • 181820Z 15004KT 120V180 8000 -SHRA BKN025CB 10/10 Q0997
  • 181750Z 16006KT 8000 -SHRA SCT012 BKN025CB 11/10 Q0998
  • 181720Z 19009KT 150V210 4000 -SHRA SCT005 BKN022CB 11/09 Q0998
  • 181707Z 18008G22KT 110V240 4000 SHRA SCT005 BKN022CB BKN042 11/10 Q0998
  • 181650Z 11006KT 9999 -SHRA SCT028CB BKN048 13/12 Q0997
  • 181645Z 11006KT 9999 -SHRA SCT028CB BKN036 13/12 Q0997
  • 181620Z AUTO 11007KT 8000 BKN130/// 13/12 Q0998
  • 181606Z AUTO 10006KT 7000 FEW011/// FEW120/// 13/12 Q0998

TAF TAF EKKA
Valid from the 18 at 18:00 until the 19 at 18:00 UTC


181717Z 1818/1918 20012G22KT 9999 BKN030
TEMPO 1818/1909 4000 SHRA BR BKN008 BKN020CB
TEMPO 1909/1918 7000 -SHRA BKN012 FEW020TCU



MET'MAP, your aeronautical weather chart ! - Copyright ORBIFLY December 2007 - Disclaimer

ORBIFLY MET'MAP TEAM :

Programming & Development : Alexandra Zaïnal
Concept & Development : Baudouin d'Aumeries
Co-Development & Prog : Marc-Olivier Méhu
Technical & hardware support : Manuel Goepfert

Contact : metmap@orbifly.com




SOURCES & CREDITS :

   NOAA